createdAt,value
2022-08-04T00:00:31.934Z,6.38
2022-08-04T00:03:24.537Z,9.38
2022-08-04T00:08:47.013Z,4.38
2022-08-04T00:11:23.505Z,3.22
2022-08-04T00:14:03.147Z,3.60
2022-08-04T00:16:38.774Z,3.13
2022-08-04T00:19:16.837Z,3.38
2022-08-04T00:21:52.088Z,5.38
2022-08-04T00:24:21.861Z,7.93
2022-08-04T00:26:49.531Z,7.53
2022-08-04T00:29:17.137Z,8.93
2022-08-04T00:31:56.258Z,8.98
2022-08-04T00:34:30.174Z,7.53
2022-08-04T00:36:58.814Z,7.13
2022-08-04T00:39:27.576Z,7.30
2022-08-04T00:42:13.441Z,7.88
2022-08-04T00:44:56.010Z,7.28
2022-08-04T00:47:41.607Z,6.07
2022-08-04T00:50:32.370Z,7.20
2022-08-04T00:53:19.156Z,7.53
2022-08-04T00:56:07.621Z,10.52
2022-08-04T00:58:52.610Z,6.07
2022-08-04T01:01:37.083Z,7.70
2022-08-04T01:04:15.061Z,6.35
2022-08-04T01:07:07.533Z,6.05
2022-08-04T01:09:55.361Z,7.30
2022-08-04T01:12:31.712Z,5.25
2022-08-04T01:15:18.476Z,5.25
2022-08-04T01:18:06.700Z,5.28
2022-08-04T01:21:01.804Z,5.72
2022-08-04T01:24:01.658Z,5.78
2022-08-04T01:26:57.673Z,6.65
2022-08-04T01:29:47.035Z,6.47
2022-08-04T01:32:37.315Z,6.70
2022-08-04T01:35:04.992Z,6.93
2022-08-04T01:37:48.074Z,6.68
2022-08-04T01:42:46.177Z,7.40
2022-08-04T01:45:14.773Z,7.07
2022-08-04T01:47:54.497Z,7.20
2022-08-04T01:50:23.252Z,6.93
2022-08-04T01:52:54.232Z,7.28
2022-08-04T01:55:22.851Z,7.20
2022-08-04T01:57:53.666Z,7.55
2022-08-04T02:00:23.769Z,7.18
2022-08-04T02:02:51.807Z,7.13
2022-08-04T02:05:21.862Z,6.78
2022-08-04T02:08:04.932Z,6.43
2022-08-04T02:13:22.238Z,7.00
2022-08-04T02:15:58.278Z,6.15
2022-08-04T02:18:49.657Z,6.10
2022-08-04T02:21:20.934Z,5.63
2022-08-04T02:24:03.280Z,5.25
2022-08-04T02:26:33.927Z,5.65
2022-08-04T02:29:04.577Z,4.95
2022-08-04T02:31:38.838Z,4.60
2022-08-04T02:34:10.271Z,5.70
2022-08-04T02:36:40.727Z,5.47
2022-08-04T02:39:10.525Z,5.40
2022-08-04T02:41:40.475Z,5.57
2022-08-04T02:44:10.735Z,5.35
2022-08-04T02:46:42.191Z,4.82
2022-08-04T02:49:11.532Z,5.20
2022-08-04T02:51:43.552Z,5.50
2022-08-04T02:54:15.679Z,5.07
2022-08-04T02:57:00.366Z,4.80
2022-08-04T02:59:30.475Z,5.05
2022-08-04T03:01:58.470Z,5.55
2022-08-04T03:04:50.679Z,5.10
2022-08-04T03:07:43.985Z,4.78
2022-08-04T03:10:36.014Z,4.07
2022-08-04T03:13:23.491Z,4.47
2022-08-04T03:16:12.992Z,4.15
2022-08-04T03:18:55.858Z,4.18
2022-08-04T03:21:50.751Z,4.18
2022-08-04T03:24:55.702Z,3.83
2022-08-04T03:27:43.726Z,3.83
2022-08-04T03:30:18.224Z,4.22
2022-08-04T03:33:01.696Z,4.75
2022-08-04T03:35:46.025Z,4.80
2022-08-04T03:38:57.096Z,4.45
2022-08-04T03:41:51.624Z,4.50
2022-08-04T03:45:01.689Z,4.90
2022-08-04T03:47:45.173Z,4.15
2022-08-04T03:50:13.353Z,3.43
2022-08-04T03:52:59.214Z,4.22
2022-08-04T03:55:47.656Z,3.92
2022-08-04T03:58:36.543Z,3.20
2022-08-04T04:01:11.760Z,3.63
2022-08-04T04:03:48.357Z,4.88
2022-08-04T04:06:31.270Z,3.92
2022-08-04T04:10:01.178Z,4.05
2022-08-04T04:12:51.923Z,4.57
2022-08-04T04:15:49.946Z,4.60
2022-08-04T04:18:55.028Z,4.15
2022-08-04T04:21:43.814Z,2.80
2022-08-04T04:24:41.191Z,3.20
2022-08-04T04:27:45.765Z,2.13
2022-08-04T04:30:19.980Z,3.10
2022-08-04T04:33:33.031Z,2.33
2022-08-04T04:36:18.629Z,2.67
2022-08-04T04:39:04.838Z,2.42
2022-08-04T04:41:48.401Z,1.95
2022-08-04T04:44:52.697Z,1.85
2022-08-04T04:48:08.661Z,1.85
2022-08-04T04:50:58.979Z,1.85
2022-08-04T04:53:44.991Z,1.92
2022-08-04T04:56:25.960Z,2.03
2022-08-04T04:58:55.933Z,2.08
2022-08-04T05:01:45.137Z,2.20
2022-08-04T05:04:24.666Z,1.70
2022-08-04T05:07:22.683Z,2.60
2022-08-04T05:10:40.542Z,1.80
2022-08-04T05:14:34.916Z,2.03
2022-08-04T05:16:16.470Z,1.40
2022-08-04T05:18:55.044Z,1.80
2022-08-04T05:21:43.370Z,1.90
2022-08-04T05:24:13.741Z,2.20
2022-08-04T05:26:46.438Z,1.92
2022-08-04T05:29:25.156Z,1.90
2022-08-04T05:32:05.219Z,2.20
2022-08-04T05:34:39.659Z,2.10
2022-08-04T05:37:15.286Z,2.10
2022-08-04T05:39:54.344Z,1.90
2022-08-04T05:42:23.458Z,2.08
2022-08-04T05:44:52.082Z,1.63
2022-08-04T05:47:22.487Z,1.90
2022-08-04T05:50:01.426Z,1.80
2022-08-04T05:52:32.799Z,1.98
2022-08-04T05:55:01.984Z,1.77
2022-08-04T05:57:32.110Z,1.52
2022-08-04T06:00:25.302Z,1.63
2022-08-04T06:02:53.183Z,1.63
2022-08-04T06:05:21.005Z,1.75
2022-08-04T06:08:12.692Z,1.60
2022-08-04T06:10:40.345Z,1.90
2022-08-04T06:13:48.317Z,1.92
2022-08-04T06:16:02.170Z,1.70
2022-08-04T06:18:33.398Z,1.80
2022-08-04T06:21:23.097Z,1.70
2022-08-04T06:23:53.751Z,1.70
2022-08-04T06:26:28.177Z,1.52
2022-08-04T06:28:57.522Z,1.45
2022-08-04T06:32:31.311Z,1.67
2022-08-04T06:34:33.496Z,1.60
2022-08-04T06:37:01.362Z,1.90
2022-08-04T06:39:32.454Z,1.80
2022-08-04T06:42:17.071Z,1.65
2022-08-04T06:44:58.081Z,1.70
2022-08-04T06:47:26.766Z,1.80
2022-08-04T06:51:26.619Z,1.77
2022-08-04T06:52:46.216Z,1.70
2022-08-04T06:55:13.919Z,1.50
2022-08-04T06:57:43.411Z,1.60
2022-08-04T07:00:14.933Z,1.70
2022-08-04T07:02:51.121Z,1.90
2022-08-04T07:05:20.240Z,1.40
2022-08-04T07:07:56.977Z,1.73
2022-08-04T07:10:30.762Z,1.25
2022-08-04T07:13:00.051Z,1.50
2022-08-04T07:15:29.988Z,1.70
2022-08-04T07:18:03.204Z,1.80
2022-08-04T07:20:35.657Z,1.70
2022-08-04T07:23:08.187Z,1.40
2022-08-04T07:25:58.679Z,1.70
2022-08-04T07:28:33.430Z,1.50
2022-08-04T07:31:02.990Z,1.60
2022-08-04T07:33:30.955Z,1.40
2022-08-04T07:36:09.923Z,1.60
2022-08-04T07:38:48.533Z,1.60
2022-08-04T07:41:40.652Z,1.73
2022-08-04T07:44:09.720Z,1.60
2022-08-04T07:46:37.745Z,1.50
2022-08-04T07:49:06.435Z,1.40
2022-08-04T07:51:36.128Z,1.50
2022-08-04T07:54:05.599Z,1.50
2022-08-04T07:56:38.013Z,1.60
2022-08-04T07:59:07.015Z,1.52
2022-08-04T08:01:38.218Z,1.98
2022-08-04T08:04:07.912Z,1.50
2022-08-04T08:06:42.598Z,1.45
2022-08-04T08:09:21.526Z,1.75
2022-08-04T08:12:37.748Z,1.60
2022-08-04T08:14:39.171Z,1.80
2022-08-04T08:17:07.277Z,1.40
2022-08-04T08:19:36.374Z,1.50
2022-08-04T08:22:05.061Z,1.35
2022-08-04T08:24:36.397Z,1.60
2022-08-04T08:27:05.112Z,1.60
2022-08-04T08:29:34.878Z,1.50
2022-08-04T08:32:08.222Z,1.60
2022-08-04T08:34:38.027Z,1.40
2022-08-04T08:37:16.737Z,1.50
2022-08-04T08:39:54.581Z,1.40
2022-08-04T08:42:37.812Z,1.67
2022-08-04T08:45:07.989Z,1.42
2022-08-04T08:48:05.758Z,1.65
2022-08-04T08:51:25.105Z,1.67
2022-08-04T08:54:11.164Z,1.50
2022-08-04T08:57:06.235Z,1.50
2022-08-04T09:00:02.185Z,1.40
2022-08-04T09:02:45.694Z,1.50
2022-08-04T09:05:31.797Z,1.50
2022-08-04T09:08:23.519Z,1.40
2022-08-04T09:10:57.301Z,1.58
2022-08-04T09:13:34.435Z,1.60
2022-08-04T09:16:23.481Z,1.90
2022-08-04T09:18:53.909Z,1.75
2022-08-04T09:21:39.655Z,2.00
2022-08-04T09:24:34.737Z,1.80
2022-08-04T09:27:11.432Z,1.60
2022-08-04T09:29:52.929Z,1.60
2022-08-04T09:32:38.654Z,1.70
2022-08-04T09:35:36.698Z,2.10
2022-08-04T09:38:13.775Z,1.63
2022-08-04T09:40:53.265Z,1.90
2022-08-04T09:43:57.077Z,1.50
2022-08-04T09:46:47.324Z,1.97
2022-08-04T09:49:23.683Z,1.63
2022-08-04T09:51:59.830Z,1.80
2022-08-04T09:54:51.359Z,1.90
2022-08-04T09:57:56.723Z,1.17
2022-08-04T10:00:40.869Z,1.77
2022-08-04T10:03:17.453Z,2.00
2022-08-04T10:06:05.171Z,2.15
2022-08-04T10:09:00.347Z,1.70
2022-08-04T10:11:55.479Z,1.77
2022-08-04T10:14:51.922Z,1.75
2022-08-04T10:17:53.347Z,1.70
2022-08-04T10:20:54.104Z,1.50
2022-08-04T10:23:56.421Z,1.67
2022-08-04T10:26:29.864Z,1.65
2022-08-04T10:29:05.149Z,1.58
2022-08-04T10:31:54.373Z,1.70
2022-08-04T10:34:26.718Z,1.55
2022-08-04T10:37:05.230Z,1.50
2022-08-04T10:40:11.980Z,1.63
2022-08-04T10:42:47.367Z,1.58
2022-08-04T10:45:22.681Z,1.60
2022-08-04T10:48:06.110Z,1.70
2022-08-04T10:50:43.024Z,1.40
2022-08-04T10:53:17.656Z,1.80
2022-08-04T10:56:05.561Z,1.63
2022-08-04T10:58:48.253Z,1.77
2022-08-04T11:02:01.198Z,1.60
2022-08-04T11:04:36.892Z,1.70
2022-08-04T11:07:04.945Z,1.73
2022-08-04T11:09:34.425Z,1.90
2022-08-04T11:12:15.873Z,1.50
2022-08-04T11:14:52.249Z,1.50
2022-08-04T11:17:27.726Z,1.50
2022-08-04T11:20:35.151Z,1.88
2022-08-04T11:23:05.680Z,1.40
2022-08-04T11:25:59.051Z,1.48
2022-08-04T11:28:56.058Z,1.40
2022-08-04T11:31:39.707Z,1.60
2022-08-04T11:34:23.643Z,1.60
2022-08-04T11:37:48.409Z,1.42
2022-08-04T11:40:25.368Z,1.70
2022-08-04T11:42:57.444Z,1.60
2022-08-04T11:45:51.743Z,2.17
2022-08-04T11:49:02.751Z,1.88
2022-08-04T11:54:01.078Z,1.30
2022-08-04T11:56:36.509Z,1.50
2022-08-04T11:59:10.569Z,1.75
2022-08-04T12:01:43.835Z,1.70
2022-08-04T12:04:23.226Z,1.60
2022-08-04T12:09:59.977Z,2.38
2022-08-04T12:12:47.567Z,1.65
2022-08-04T12:15:33.259Z,1.73
2022-08-04T12:18:26.894Z,1.88
2022-08-04T12:21:02.624Z,1.67
2022-08-04T12:23:40.503Z,1.80
2022-08-04T12:26:23.708Z,2.00
2022-08-04T12:29:13.812Z,1.75
2022-08-04T12:31:46.035Z,1.83
2022-08-04T12:34:44.583Z,1.80
2022-08-04T12:37:34.007Z,2.33
2022-08-04T12:40:27.385Z,4.20
2022-08-04T12:43:23.672Z,1.80
2022-08-04T12:45:54.106Z,1.60
2022-08-04T12:48:24.421Z,1.90
2022-08-04T12:50:57.291Z,1.80
2022-08-04T12:53:32.831Z,1.83
2022-08-04T12:56:02.615Z,2.10
2022-08-04T12:58:42.261Z,2.45
2022-08-04T13:02:06.975Z,2.00
2022-08-04T13:04:24.518Z,2.10
2022-08-04T13:07:16.161Z,2.20
2022-08-04T13:09:44.413Z,2.25
2022-08-04T13:12:26.009Z,2.33
2022-08-04T13:15:19.292Z,2.05
2022-08-04T13:17:59.444Z,2.17
2022-08-04T13:20:32.658Z,1.80
2022-08-04T13:23:09.009Z,2.00
2022-08-04T13:26:43.303Z,1.98
2022-08-04T13:28:34.752Z,2.00
2022-08-04T13:31:06.474Z,2.05
2022-08-04T13:33:38.471Z,2.30
2022-08-04T13:36:08.444Z,2.10
2022-08-04T13:38:40.218Z,2.20
2022-08-04T13:41:09.368Z,2.40
2022-08-04T13:44:19.132Z,2.13
2022-08-04T13:46:59.114Z,2.50
2022-08-04T13:49:42.473Z,2.10
2022-08-04T13:52:14.181Z,2.30
2022-08-04T13:54:45.237Z,2.30
2022-08-04T13:57:28.037Z,2.30
2022-08-04T14:00:00.048Z,2.33
2022-08-04T14:02:43.614Z,2.45
2022-08-04T14:05:27.977Z,2.60
2022-08-04T14:08:08.092Z,2.80
2022-08-04T14:10:37.235Z,2.72
2022-08-04T14:13:07.412Z,2.63
2022-08-04T14:16:02.908Z,2.80
2022-08-04T14:18:32.920Z,3.10
2022-08-04T14:21:10.940Z,3.42
2022-08-04T14:23:49.348Z,3.30
2022-08-04T14:26:35.911Z,3.47
2022-08-04T14:29:26.789Z,3.33
2022-08-04T14:32:13.029Z,3.05
2022-08-04T14:34:45.125Z,4.18
2022-08-04T14:37:18.607Z,2.83
2022-08-04T14:40:17.529Z,2.83
2022-08-04T14:42:54.949Z,2.53
2022-08-04T14:45:55.053Z,2.25
2022-08-04T14:48:25.226Z,2.50
2022-08-04T14:50:52.886Z,2.72
2022-08-04T14:53:23.217Z,3.03
2022-08-04T14:55:57.202Z,2.85
2022-08-04T14:58:37.714Z,3.63
2022-08-04T15:01:10.550Z,2.53
2022-08-04T15:06:26.557Z,2.28
2022-08-04T15:08:57.089Z,2.58
2022-08-04T15:11:25.186Z,2.28
2022-08-04T15:13:53.829Z,2.33
2022-08-04T15:16:23.766Z,2.20
2022-08-04T15:18:52.771Z,2.55
2022-08-04T15:21:26.155Z,2.50
2022-08-04T15:23:53.752Z,2.65
2022-08-04T15:26:43.511Z,2.50
2022-08-04T15:30:00.135Z,2.28
2022-08-04T15:35:12.738Z,2.33
2022-08-04T15:37:44.888Z,2.50
2022-08-04T15:40:33.412Z,2.45
2022-08-04T15:43:18.541Z,2.20
2022-08-04T15:46:02.056Z,2.55
2022-08-04T15:48:40.090Z,2.10
2022-08-04T15:51:14.677Z,2.33
2022-08-04T15:54:02.479Z,2.47
2022-08-04T15:56:30.391Z,2.58
2022-08-04T15:58:58.023Z,3.00
2022-08-04T16:01:27.871Z,2.63
2022-08-04T16:04:00.230Z,2.67
2022-08-04T16:06:30.480Z,2.92
2022-08-04T16:09:00.437Z,3.00
2022-08-04T16:11:33.114Z,2.33
2022-08-04T16:14:03.417Z,2.55
2022-08-04T16:16:47.055Z,2.65
2022-08-04T16:19:35.350Z,2.72
2022-08-04T16:22:04.764Z,2.60
2022-08-04T16:24:37.462Z,2.90
2022-08-04T16:27:06.577Z,2.80
2022-08-04T16:29:41.604Z,2.50
2022-08-04T16:32:36.667Z,3.95
2022-08-04T16:35:18.064Z,2.63
2022-08-04T16:37:45.539Z,3.45
2022-08-04T16:40:38.897Z,5.80
2022-08-04T16:43:09.827Z,2.70
2022-08-04T16:45:49.570Z,3.10
2022-08-04T16:48:22.831Z,2.90
2022-08-04T16:51:04.760Z,2.40
2022-08-04T16:54:02.962Z,2.08
2022-08-04T16:56:30.157Z,2.60
2022-08-04T16:59:07.671Z,2.50
2022-08-04T17:01:35.745Z,2.42
2022-08-04T17:04:05.671Z,2.70
2022-08-04T17:06:51.705Z,2.50
2022-08-04T17:09:23.311Z,2.22
2022-08-04T17:11:54.147Z,2.50
2022-08-04T17:14:23.516Z,2.63
2022-08-04T17:16:51.939Z,2.40
2022-08-04T17:19:25.066Z,2.55
2022-08-04T17:22:07.624Z,2.63
2022-08-04T17:24:41.253Z,3.00
2022-08-04T17:28:06.185Z,2.97
2022-08-04T17:29:58.402Z,3.20
2022-08-04T17:32:26.139Z,3.10
2022-08-04T17:34:57.429Z,3.00
2022-08-04T17:37:51.899Z,2.92
2022-08-04T17:40:18.679Z,2.72
2022-08-04T17:44:04.772Z,2.70
2022-08-04T17:46:34.528Z,2.50
2022-08-04T17:49:12.751Z,2.78
2022-08-04T17:52:06.565Z,2.70
2022-08-04T17:54:40.818Z,1.88
2022-08-04T17:57:19.587Z,2.80
2022-08-04T17:59:56.540Z,2.63
2022-08-04T18:02:53.660Z,1.70
2022-08-04T18:08:39.099Z,2.03
2022-08-04T18:11:05.647Z,1.75
2022-08-04T18:13:42.869Z,1.95
2022-08-04T18:16:21.991Z,2.00
2022-08-04T18:19:09.504Z,1.98
2022-08-04T18:21:46.208Z,2.03
2022-08-04T18:24:34.276Z,2.03
2022-08-04T18:27:14.551Z,1.83
2022-08-04T18:30:15.020Z,2.00
2022-08-04T18:32:33.603Z,2.33
2022-08-04T18:35:05.207Z,1.83
2022-08-04T18:40:26.794Z,6.18
2022-08-04T18:43:00.033Z,5.80
2022-08-04T18:45:33.840Z,4.47
2022-08-04T18:48:04.218Z,4.10
2022-08-04T18:51:08.826Z,3.67
2022-08-04T18:53:34.879Z,3.60
2022-08-04T18:56:06.251Z,3.30
2022-08-04T18:58:48.700Z,3.05
2022-08-04T19:01:16.255Z,2.75
2022-08-04T19:03:45.601Z,3.17
2022-08-04T19:06:16.013Z,3.10
2022-08-04T19:08:45.033Z,3.72
2022-08-04T19:11:37.228Z,3.63
2022-08-04T19:14:02.886Z,2.80
2022-08-04T19:16:33.386Z,2.60
2022-08-04T19:19:03.518Z,2.25
2022-08-04T19:21:59.704Z,2.50
2022-08-04T19:24:32.821Z,2.30
2022-08-04T19:27:06.543Z,2.30
2022-08-04T19:29:52.693Z,2.08
2022-08-04T19:32:21.615Z,2.20
2022-08-04T19:34:52.335Z,2.40
2022-08-04T19:37:58.369Z,2.80
2022-08-04T19:40:10.150Z,7.10
2022-08-04T19:42:40.246Z,5.38
2022-08-04T19:45:08.901Z,2.92
2022-08-04T19:48:22.174Z,2.72
2022-08-04T19:50:24.968Z,2.42
2022-08-04T19:52:53.649Z,1.60
2022-08-04T19:58:13.009Z,1.52
2022-08-04T20:00:51.000Z,1.95
2022-08-04T20:03:20.254Z,2.00
2022-08-04T20:05:53.387Z,1.60
2022-08-04T20:08:24.182Z,2.00
2022-08-04T20:10:54.570Z,2.00
2022-08-04T20:13:25.391Z,1.80
2022-08-04T20:15:59.436Z,1.45
2022-08-04T20:18:35.992Z,1.75
2022-08-04T20:21:20.258Z,1.80
2022-08-04T20:23:52.734Z,1.77
2022-08-04T20:26:20.664Z,1.70
2022-08-04T20:28:52.529Z,1.70
2022-08-04T20:31:23.466Z,1.58
2022-08-04T20:33:59.188Z,1.80
2022-08-04T20:36:26.806Z,1.63
2022-08-04T20:38:54.820Z,2.17
2022-08-04T20:41:22.537Z,2.00
2022-08-04T20:43:50.705Z,2.20
2022-08-04T20:46:29.540Z,2.70
2022-08-04T20:48:58.266Z,2.30
2022-08-04T20:51:31.584Z,4.03
2022-08-04T20:54:02.141Z,6.70
2022-08-04T20:56:31.001Z,5.05
2022-08-04T20:59:00.256Z,3.95
2022-08-04T21:01:29.990Z,3.10
2022-08-04T21:04:27.942Z,3.33
2022-08-04T21:07:01.229Z,3.85
2022-08-04T21:09:38.498Z,3.50
2022-08-04T21:12:27.579Z,3.00
2022-08-04T21:14:58.141Z,2.85
2022-08-04T21:17:59.320Z,3.40
2022-08-04T21:20:13.980Z,3.40
2022-08-04T21:22:41.664Z,3.72
2022-08-04T21:25:14.565Z,3.63
2022-08-04T21:27:44.537Z,3.35
2022-08-04T21:30:26.246Z,4.65
2022-08-04T21:33:06.108Z,5.25
2022-08-04T21:35:39.749Z,5.45
2022-08-04T21:38:16.599Z,5.18
2022-08-04T21:40:56.775Z,5.75
2022-08-04T21:43:27.433Z,5.20
2022-08-04T21:46:03.919Z,5.90
2022-08-04T21:48:32.984Z,5.28
2022-08-04T21:51:58.608Z,5.43
2022-08-04T21:54:05.985Z,6.25
2022-08-04T21:56:34.322Z,6.45
2022-08-04T21:59:07.171Z,7.15
2022-08-04T22:01:51.059Z,7.93
2022-08-04T22:04:20.539Z,8.48
2022-08-04T22:06:51.950Z,8.90
2022-08-04T22:09:21.884Z,8.57
2022-08-04T22:11:51.552Z,8.43
2022-08-04T22:14:27.255Z,7.97
2022-08-04T22:16:57.488Z,8.98
2022-08-04T22:19:39.752Z,8.52
2022-08-04T22:22:12.537Z,9.32
2022-08-04T22:24:41.322Z,8.68
2022-08-04T22:27:13.093Z,8.88
2022-08-04T22:29:44.776Z,9.13
2022-08-04T22:32:12.350Z,8.10
2022-08-04T22:34:45.654Z,9.63
2022-08-04T22:37:20.971Z,8.65
2022-08-04T22:40:04.919Z,8.85
2022-08-04T22:42:32.595Z,8.60
2022-08-04T22:45:01.393Z,8.60
2022-08-04T22:47:31.447Z,9.48
2022-08-04T22:50:13.855Z,8.57
2022-08-04T22:52:51.637Z,8.02
2022-08-04T22:55:24.006Z,8.85
2022-08-04T22:58:04.306Z,8.02
2022-08-04T23:00:33.339Z,9.85
2022-08-04T23:03:00.921Z,9.48
2022-08-04T23:05:35.558Z,10.27
2022-08-04T23:08:05.214Z,9.95
2022-08-04T23:10:33.117Z,9.55
2022-08-04T23:13:04.009Z,9.15
2022-08-04T23:15:33.663Z,8.68
2022-08-04T23:18:01.380Z,8.52
2022-08-04T23:20:32.721Z,8.98
2022-08-04T23:23:14.625Z,8.13
2022-08-04T23:26:07.406Z,8.83
2022-08-04T23:28:33.493Z,8.45
2022-08-04T23:31:02.228Z,8.15
2022-08-04T23:33:50.856Z,7.57
2022-08-04T23:36:18.190Z,7.63
2022-08-04T23:38:46.227Z,8.68
2022-08-04T23:41:17.251Z,8.15
2022-08-04T23:43:55.078Z,7.90
2022-08-04T23:46:23.947Z,8.50
2022-08-04T23:48:52.369Z,8.35
2022-08-04T23:51:20.110Z,8.32
2022-08-04T23:54:01.638Z,8.52
2022-08-04T23:56:31.900Z,8.63
2022-08-04T23:59:03.387Z,8.15
